Time;durP1;ratioP1;P1;durP2;ratioP2;P2;SDS_P1;SDS_P2;PMS_P1;PMS_P2;Temp;Humidity;BMP_temperature;BMP_pressure;BME280_temperature;BME280_humidity;BME280_pressure;Samples;Min_cycle;Max_cycle;Signal;HPM_P1;HPM_P2
2020/12/21 00:00:49;;;;;;;19.23;12.30;;;4.90;99.90;;;;;;5031801;28;20298;-71
2020/12/21 00:03:15;;;;;;;17.73;13.17;;;4.90;99.90;;;;;;5031856;28;20167;-71
2020/12/21 00:05:40;;;;;;;17.37;12.90;;;4.90;99.90;;;;;;5031897;28;20584;-71
2020/12/21 00:08:06;;;;;;;14.60;11.77;;;4.90;99.90;;;;;;5031217;28;20188;-70
2020/12/21 00:10:31;;;;;;;15.60;12.03;;;4.90;99.90;;;;;;5031688;28;20222;-71
2020/12/21 00:12:57;;;;;;;16.80;12.50;;;4.90;99.90;;;;;;5031047;28;20163;-71
2020/12/21 00:15:23;;;;;;;14.33;11.47;;;4.90;99.90;;;;;;5029649;28;20674;-71
2020/12/21 00:17:49;;;;;;;15.20;11.87;;;4.90;99.90;;;;;;5031570;28;20446;-71
2020/12/21 00:20:14;;;;;;;18.20;12.97;;;4.90;99.90;;;;;;5031292;28;20222;-71
2020/12/21 00:22:40;;;;;;;16.10;10.63;;;4.80;99.90;;;;;;5031348;28;20566;-71
2020/12/21 00:25:05;;;;;;;14.27;11.30;;;4.80;99.90;;;;;;5031028;28;20410;-71
2020/12/21 00:27:31;;;;;;;17.97;12.90;;;4.80;99.90;;;;;;5035816;28;20657;-71
2020/12/21 00:29:56;;;;;;;15.53;10.67;;;4.80;99.90;;;;;;5037196;28;20277;-71
2020/12/21 00:32:22;;;;;;;16.07;11.53;;;4.70;99.90;;;;;;5037271;28;20163;-71
2020/12/21 00:34:47;;;;;;;18.20;12.33;;;4.70;99.90;;;;;;5036598;28;20203;-71
2020/12/21 00:37:13;;;;;;;14.90;11.97;;;4.70;99.90;;;;;;5035769;28;20251;-71
2020/12/21 00:39:38;;;;;;;19.10;12.20;;;4.70;99.90;;;;;;5034868;28;20207;-71
2020/12/21 00:42:04;;;;;;;13.73;11.60;;;4.70;99.90;;;;;;5035086;28;20204;-70
2020/12/21 00:44:31;;;;;;;15.23;10.60;;;4.70;99.90;;;;;;5035049;28;20182;-71
2020/12/21 00:46:56;;;;;;;16.83;11.57;;;4.70;99.90;;;;;;5034464;28;20537;-71
2020/12/21 00:49:22;;;;;;;14.20;11.70;;;4.70;99.90;;;;;;5034869;28;20438;-70
2020/12/21 00:51:47;;;;;;;17.33;12.00;;;4.70;99.90;;;;;;5034572;28;20262;-70
2020/12/21 00:54:13;;;;;;;17.40;11.50;;;4.80;99.90;;;;;;5035053;28;20680;-71
2020/12/21 00:56:38;;;;;;;17.33;11.60;;;4.70;99.90;;;;;;5034535;28;20176;-71
2020/12/21 00:59:04;;;;;;;17.93;11.83;;;4.80;99.90;;;;;;5034680;28;20746;-71
2020/12/21 01:01:29;;;;;;;17.03;11.33;;;4.80;99.90;;;;;;5034812;28;20179;-71
2020/12/21 01:03:56;;;;;;;14.70;11.87;;;4.70;99.90;;;;;;5035092;28;20171;-71
2020/12/21 01:06:22;;;;;;;15.17;12.20;;;4.80;99.90;;;;;;5033909;28;20624;-70
2020/12/21 01:08:47;;;;;;;18.13;11.27;;;4.80;99.90;;;;;;5034343;28;20549;-70
2020/12/21 01:11:14;;;;;;;19.80;12.60;;;4.80;99.90;;;;;;5034642;28;20171;-70
2020/12/21 01:13:44;;;;;;;17.30;11.60;;;4.80;99.90;;;;;;5034554;28;20167;-70
2020/12/21 01:16:10;;;;;;;14.83;11.80;;;4.80;99.90;;;;;;5034126;28;20877;-71
2020/12/21 01:18:36;;;;;;;13.37;10.53;;;4.80;99.90;;;;;;5035280;28;20411;-70
2020/12/21 01:21:01;;;;;;;16.67;12.00;;;4.80;99.90;;;;;;5034879;28;20513;-71
2020/12/21 01:23:27;;;;;;;15.67;12.40;;;4.80;99.90;;;;;;5034338;28;20172;-70
2020/12/21 01:25:52;;;;;;;15.33;13.03;;;4.80;99.90;;;;;;5034111;28;20817;-70
2020/12/21 01:28:18;;;;;;;15.37;11.70;;;4.80;99.90;;;;;;5033846;28;20251;-70
2020/12/21 01:30:44;;;;;;;16.07;12.30;;;4.80;99.90;;;;;;5034143;28;20203;-70
2020/12/21 01:33:10;;;;;;;16.57;12.87;;;4.80;99.90;;;;;;5034667;28;20202;-71
2020/12/21 01:35:36;;;;;;;15.07;11.80;;;4.80;99.90;;;;;;5033827;28;20199;-70
2020/12/21 01:38:02;;;;;;;16.00;11.97;;;4.80;99.90;;;;;;5033662;28;20458;-70
2020/12/21 01:40:27;;;;;;;17.63;12.43;;;4.80;99.90;;;;;;5033867;28;20275;-70
2020/12/21 01:42:53;;;;;;;15.60;12.37;;;4.80;99.90;;;;;;5034119;28;20888;-70
2020/12/21 01:45:18;;;;;;;19.57;13.43;;;4.80;99.90;;;;;;5033638;28;20221;-70
2020/12/21 01:47:44;;;;;;;21.23;11.67;;;4.80;99.90;;;;;;5033352;28;20203;-70
2020/12/21 01:50:10;;;;;;;17.40;12.17;;;4.80;99.90;;;;;;5033767;28;20222;-70
2020/12/21 01:52:36;;;;;;;15.67;12.27;;;4.80;99.90;;;;;;5033623;28;20180;-70
2020/12/21 01:55:01;;;;;;;19.60;13.53;;;4.90;99.90;;;;;;5033605;28;20640;-70
2020/12/21 01:57:27;;;;;;;16.30;12.93;;;4.90;99.90;;;;;;5033395;28;20521;-71
2020/12/21 01:59:52;;;;;;;16.00;12.60;;;4.90;99.90;;;;;;5033356;28;20214;-71
2020/12/21 02:02:18;;;;;;;18.00;13.17;;;4.90;99.90;;;;;;5033524;28;20640;-71
2020/12/21 02:04:44;;;;;;;16.50;12.07;;;4.90;99.90;;;;;;5033236;28;20191;-70
2020/12/21 02:07:12;;;;;;;17.13;13.20;;;4.90;99.90;;;;;;5033157;28;20230;-71
2020/12/21 02:09:37;;;;;;;15.90;12.17;;;5.00;99.90;;;;;;5033075;28;21003;-71
2020/12/21 02:12:03;;;;;;;18.80;13.60;;;4.90;99.90;;;;;;5033400;28;20495;-71
2020/12/21 02:14:29;;;;;;;16.40;12.43;;;4.90;99.90;;;;;;5033198;28;20193;-71
2020/12/21 02:16:54;;;;;;;22.50;12.27;;;4.90;99.90;;;;;;5033264;28;20176;-71
2020/12/21 02:19:20;;;;;;;18.33;13.70;;;4.90;99.90;;;;;;5032796;28;20484;-71
2020/12/21 02:21:46;;;;;;;16.10;12.37;;;4.90;99.90;;;;;;5033105;28;20179;-72
2020/12/21 02:24:11;;;;;;;17.33;12.80;;;5.00;99.90;;;;;;5033358;28;20180;-72
2020/12/21 02:26:37;;;;;;;19.07;12.63;;;4.90;99.90;;;;;;5032681;28;20442;-71
2020/12/21 02:29:02;;;;;;;19.23;13.50;;;5.00;99.90;;;;;;5032606;28;20183;-71
2020/12/21 02:31:28;;;;;;;21.27;13.73;;;5.00;99.90;;;;;;5032966;28;20195;-72
2020/12/21 02:33:53;;;;;;;16.93;12.17;;;5.00;99.90;;;;;;5032917;28;20257;-71
2020/12/21 02:36:19;;;;;;;18.73;14.13;;;5.00;99.90;;;;;;5033079;28;20182;-71
2020/12/21 02:38:45;;;;;;;17.50;13.40;;;5.00;99.90;;;;;;5032753;28;20624;-72
2020/12/21 02:41:16;;;;;;;19.50;12.50;;;5.00;99.90;;;;;;5033048;28;20442;-72
2020/12/21 02:43:42;;;;;;;15.50;11.20;;;5.00;99.90;;;;;;5032786;28;20180;-71
2020/12/21 02:46:09;;;;;;;18.30;12.10;;;5.10;99.90;;;;;;5032508;28;20465;-71
2020/12/21 02:48:35;;;;;;;20.50;14.03;;;5.10;99.90;;;;;;5032090;28;20172;-71
2020/12/21 02:51:00;;;;;;;18.57;13.37;;;5.10;99.90;;;;;;5032394;28;20386;-71
2020/12/21 02:53:26;;;;;;;17.60;13.13;;;5.10;99.90;;;;;;5031394;28;20178;-71
2020/12/21 02:55:51;;;;;;;16.53;12.30;;;5.10;99.90;;;;;;5032546;28;20203;-71
2020/12/21 02:58:17;;;;;;;18.60;12.70;;;5.10;99.90;;;;;;5032508;28;20603;-71
2020/12/21 03:00:43;;;;;;;19.73;12.97;;;5.20;99.90;;;;;;5032011;28;20194;-70
2020/12/21 03:03:09;;;;;;;18.57;13.03;;;5.20;99.90;;;;;;5032467;28;20201;-70
2020/12/21 03:05:34;;;;;;;15.73;12.60;;;5.20;99.90;;;;;;5032289;28;20401;-70
2020/12/21 03:08:02;;;;;;;14.97;11.30;;;5.20;99.90;;;;;;5032108;28;20200;-71
2020/12/21 03:10:28;;;;;;;18.40;13.33;;;5.20;99.90;;;;;;5031910;28;20234;-71
2020/12/21 03:12:53;;;;;;;20.47;14.10;;;5.20;99.90;;;;;;5032257;28;20868;-71
2020/12/21 03:15:19;;;;;;;16.13;12.97;;;5.30;99.90;;;;;;5031784;28;20250;-71
2020/12/21 03:17:45;;;;;;;16.60;13.47;;;5.30;99.90;;;;;;5032266;28;20561;-71
2020/12/21 03:20:11;;;;;;;20.23;13.73;;;5.30;99.90;;;;;;5031876;28;20426;-71
2020/12/21 03:22:37;;;;;;;15.23;11.80;;;5.30;99.90;;;;;;5031991;28;20197;-71
2020/12/21 03:25:03;;;;;;;15.00;11.83;;;5.30;99.90;;;;;;5031909;28;20773;-70
2020/12/21 03:27:28;;;;;;;17.90;12.67;;;5.30;99.90;;;;;;5031958;28;20195;-71
2020/12/21 03:29:54;;;;;;;19.83;13.50;;;5.30;99.90;;;;;;5030660;28;21057;-70
2020/12/21 03:32:20;;;;;;;15.80;12.63;;;5.30;99.90;;;;;;5031801;28;20182;-70
2020/12/21 03:34:45;;;;;;;16.70;13.90;;;5.40;99.90;;;;;;5031934;28;20258;-71
2020/12/21 03:37:11;;;;;;;19.60;14.50;;;5.40;99.90;;;;;;5031883;28;20262;-71
2020/12/21 03:39:36;;;;;;;15.83;13.43;;;5.40;99.90;;;;;;5031969;28;20195;-71
2020/12/21 03:42:02;;;;;;;19.60;14.70;;;5.40;99.90;;;;;;5030192;28;20195;-70
2020/12/21 03:44:28;;;;;;;18.53;13.27;;;5.40;99.90;;;;;;5031680;28;20577;-70
2020/12/21 03:46:54;;;;;;;15.77;12.57;;;5.40;99.90;;;;;;5031989;28;20231;-70
2020/12/21 03:49:19;;;;;;;17.53;14.10;;;5.40;99.90;;;;;;5032279;28;20234;-71
2020/12/21 03:51:47;;;;;;;17.33;13.07;;;5.50;99.90;;;;;;5032123;28;20446;-72
2020/12/21 03:54:13;;;;;;;18.37;13.57;;;5.50;99.90;;;;;;5033278;28;20167;-72
2020/12/21 03:56:43;;;;;;;18.03;13.70;;;5.50;99.90;;;;;;5033992;28;20447;-71
2020/12/21 03:59:09;;;;;;;17.30;13.87;;;5.50;99.90;;;;;;5033527;28;20601;-71
2020/12/21 04:01:34;;;;;;;20.57;14.53;;;5.50;99.90;;;;;;5036529;28;20410;-72
2020/12/21 04:04:00;;;;;;;18.83;13.53;;;5.50;99.90;;;;;;5037127;28;20414;-72
2020/12/21 04:06:33;;;;;;;15.63;12.07;;;5.50;99.90;;;;;;5035499;28;20531;-71
2020/12/21 04:08:58;;;;;;;15.20;13.47;;;5.50;99.90;;;;;;5035756;28;20215;-72
2020/12/21 04:11:24;;;;;;;17.23;13.57;;;5.50;99.90;;;;;;5035526;28;20918;-69
2020/12/21 04:13:49;;;;;;;24.00;16.30;;;5.40;99.90;;;;;;5035542;28;20600;-71
2020/12/21 04:16:15;;;;;;;16.23;13.30;;;5.50;99.90;;;;;;5035369;28;20582;-71
2020/12/21 04:18:41;;;;;;;15.87;12.87;;;5.50;99.90;;;;;;5035455;28;20168;-71
2020/12/21 04:21:13;;;;;;;20.20;14.57;;;5.50;99.90;;;;;;5035583;28;20171;-71
2020/12/21 04:23:40;;;;;;;17.73;14.17;;;5.60;99.90;;;;;;5035113;28;20168;-71
2020/12/21 04:26:06;;;;;;;19.30;13.67;;;5.50;99.90;;;;;;5034977;28;20402;-71
2020/12/21 04:28:34;;;;;;;17.77;13.60;;;5.50;99.90;;;;;;5035395;28;20402;-71
2020/12/21 04:31:01;;;;;;;17.10;13.80;;;5.50;99.90;;;;;;5035546;28;20497;-71
2020/12/21 04:33:27;;;;;;;19.63;15.07;;;5.50;99.90;;;;;;5035040;28;20410;-72
2020/12/21 04:35:52;;;;;;;18.13;13.90;;;5.50;99.90;;;;;;5035123;28;21028;-71
2020/12/21 04:38:18;;;;;;;18.70;13.83;;;5.50;99.90;;;;;;5033862;28;20582;-72
2020/12/21 04:40:52;;;;;;;13.50;11.77;;;5.50;99.90;;;;;;5034975;28;20266;-71
2020/12/21 04:43:18;;;;;;;21.40;14.80;;;5.50;99.90;;;;;;5035046;28;20167;-72
2020/12/21 04:45:45;;;;;;;19.40;13.00;;;5.40;99.90;;;;;;5034827;28;20451;-71
2020/12/21 04:48:15;;;;;;;16.43;14.00;;;5.40;99.90;;;;;;5034856;28;20795;-71
2020/12/21 04:50:43;;;;;;;20.20;14.13;;;5.40;99.90;;;;;;5035639;28;20434;-71
2020/12/21 04:53:11;;;;;;;18.33;14.10;;;5.40;99.90;;;;;;5032599;28;20969;-71
2020/12/21 04:55:37;;;;;;;19.03;13.60;;;5.40;99.90;;;;;;5034867;28;20471;-71
2020/12/21 04:58:04;;;;;;;19.57;13.90;;;5.40;99.90;;;;;;5033724;28;20853;-69
2020/12/21 05:00:32;;;;;;;18.73;14.80;;;5.40;99.90;;;;;;5034837;28;20218;-71
2020/12/21 05:02:58;;;;;;;16.40;13.60;;;5.40;99.90;;;;;;5035089;28;20410;-71
2020/12/21 05:05:31;;;;;;;19.57;13.10;;;5.40;99.90;;;;;;5034107;28;20438;-71
2020/12/21 05:07:57;;;;;;;20.33;14.17;;;5.40;99.90;;;;;;5034148;28;20466;-70
2020/12/21 05:10:22;;;;;;;17.33;13.37;;;5.40;99.90;;;;;;5034470;28;20437;-71
2020/12/21 05:12:59;;;;;;;18.90;13.80;;;5.40;99.90;;;;;;5034068;28;20410;-71
2020/12/21 05:15:24;;;;;;;20.60;14.30;;;5.40;99.90;;;;;;5034213;28;20199;-71
2020/12/21 05:17:50;;;;;;;15.40;12.53;;;5.40;99.90;;;;;;5034577;28;20499;-71
2020/12/21 05:20:15;;;;;;;17.40;14.50;;;5.30;99.90;;;;;;5034244;28;20546;-71
2020/12/21 05:22:40;;;;;;;22.90;15.20;;;5.30;99.90;;;;;;5034476;28;20266;-71
2020/12/21 05:25:08;;;;;;;17.93;15.80;;;5.30;99.90;;;;;;5033934;28;20175;-71
2020/12/21 05:27:34;;;;;;;19.10;15.53;;;5.30;99.90;;;;;;5034146;28;20618;-71
2020/12/21 05:29:59;;;;;;;20.53;16.00;;;5.30;99.90;;;;;;5034084;28;20425;-71
2020/12/21 05:32:25;;;;;;;19.33;13.70;;;5.30;99.90;;;;;;5034161;28;20423;-71
2020/12/21 05:34:51;;;;;;;19.50;14.00;;;5.30;99.90;;;;;;5033604;28;20160;-70
2020/12/21 05:37:18;;;;;;;16.43;13.47;;;5.30;99.90;;;;;;5033986;28;20468;-70
2020/12/21 05:39:54;;;;;;;18.23;13.23;;;5.30;99.90;;;;;;5034056;28;20426;-70
2020/12/21 05:42:22;;;;;;;22.70;15.00;;;5.30;99.90;;;;;;5032839;28;20484;-70
2020/12/21 05:44:59;;;;;;;19.83;15.23;;;5.30;99.90;;;;;;5033357;28;20545;-72
2020/12/21 05:47:26;;;;;;;15.67;13.07;;;5.30;99.90;;;;;;5034149;28;20933;-70
2020/12/21 05:50:04;;;;;;;17.53;14.70;;;5.30;99.90;;;;;;5033582;28;20431;-71
2020/12/21 05:52:32;;;;;;;21.43;14.43;;;5.30;99.90;;;;;;5033799;28;20414;-71
2020/12/21 05:55:08;;;;;;;17.87;14.10;;;5.30;99.90;;;;;;5033383;28;20945;-71
2020/12/21 05:57:35;;;;;;;18.97;14.23;;;5.30;99.90;;;;;;5033459;28;20461;-71
2020/12/21 06:00:10;;;;;;;18.67;12.87;;;5.30;99.90;;;;;;5033511;28;20434;-71
2020/12/21 06:02:36;;;;;;;20.60;14.93;;;5.30;99.90;;;;;;5033641;28;20406;-71
2020/12/21 06:05:07;;;;;;;22.07;15.20;;;5.30;99.90;;;;;;5033030;28;20502;-71
2020/12/21 06:07:49;;;;;;;19.40;13.87;;;5.20;99.90;;;;;;5033197;28;20815;-71
2020/12/21 06:10:14;;;;;;;16.77;13.20;;;5.20;99.90;;;;;;5032080;28;20513;-71
2020/12/21 06:12:48;;;;;;;18.87;13.10;;;5.20;99.90;;;;;;5032233;28;20546;-71
2020/12/21 06:15:22;;;;;;;22.00;13.10;;;5.20;99.90;;;;;;5033404;28;20168;-72
2020/12/21 06:17:48;;;;;;;19.13;12.50;;;5.10;99.90;;;;;;5033429;28;20405;-70
2020/12/21 06:20:14;;;;;;;17.60;12.70;;;5.10;99.90;;;;;;5033852;28;20498;-71
2020/12/21 06:22:39;;;;;;;22.43;12.87;;;5.10;99.90;;;;;;5031782;28;20422;-71
2020/12/21 06:25:06;;;;;;;18.00;14.23;;;5.10;99.90;;;;;;5032496;28;20743;-71
2020/12/21 06:27:42;;;;;;;18.67;13.10;;;5.10;99.90;;;;;;5032747;28;20578;-71
2020/12/21 06:30:09;;;;;;;15.73;13.30;;;5.10;99.90;;;;;;5033439;28;20510;-71
2020/12/21 06:32:38;;;;;;;19.70;14.70;;;5.10;99.90;;;;;;5033075;28;20403;-70
2020/12/21 06:35:19;;;;;;;17.70;13.90;;;5.10;99.90;;;;;;5033486;28;20411;-71
2020/12/21 06:38:02;;;;;;;17.23;13.13;;;5.10;99.90;;;;;;5031642;28;20406;-70
2020/12/21 06:40:33;;;;;;;21.23;14.00;;;5.10;99.90;;;;;;5033177;28;20430;-71
2020/12/21 06:43:12;;;;;;;16.90;12.07;;;5.10;99.90;;;;;;5032237;28;20778;-71
2020/12/21 06:45:38;;;;;;;20.50;13.10;;;5.10;99.90;;;;;;5032946;28;20398;-70
2020/12/21 06:48:04;;;;;;;21.03;13.63;;;5.00;99.90;;;;;;5032118;28;20453;-70
2020/12/21 06:50:30;;;;;;;20.93;14.60;;;5.10;99.90;;;;;;5032880;28;20227;-70
2020/12/21 06:52:55;;;;;;;18.13;14.23;;;5.10;99.90;;;;;;5031329;28;20188;-70
2020/12/21 06:55:20;;;;;;;15.73;12.53;;;5.10;99.90;;;;;;5032430;28;20409;-71
2020/12/21 06:57:52;;;;;;;20.13;13.60;;;5.10;99.90;;;;;;5030970;28;20178;-71
2020/12/21 07:00:21;;;;;;;19.73;13.90;;;5.10;99.90;;;;;;5032524;28;20663;-70
2020/12/21 07:02:49;;;;;;;21.97;14.57;;;5.10;99.90;;;;;;5031277;28;20442;-71
2020/12/21 07:05:14;;;;;;;23.60;15.43;;;5.00;99.90;;;;;;5032332;28;20465;-71
2020/12/21 07:07:40;;;;;;;20.00;15.17;;;5.00;99.90;;;;;;5031796;28;20961;-71
2020/12/21 07:10:12;;;;;;;21.00;13.37;;;5.10;99.90;;;;;;5032254;28;20546;-71
2020/12/21 07:12:37;;;;;;;18.10;12.10;;;5.10;99.90;;;;;;5032469;28;20601;-71
2020/12/21 07:15:04;;;;;;;20.23;12.50;;;5.00;99.90;;;;;;5032556;28;20445;-71
2020/12/21 07:17:31;;;;;;;18.17;12.40;;;4.90;99.90;;;;;;5032091;28;20258;-71
2020/12/21 07:19:58;;;;;;;17.10;12.40;;;4.90;99.90;;;;;;5032739;28;20422;-71
2020/12/21 07:22:25;;;;;;;19.13;12.43;;;4.80;99.90;;;;;;5033686;28;20778;-71
2020/12/21 07:24:51;;;;;;;21.03;13.80;;;4.80;99.90;;;;;;5033462;28;20467;-71
2020/12/21 07:27:16;;;;;;;19.40;13.53;;;4.70;99.90;;;;;;5033893;28;20454;-71
2020/12/21 07:29:42;;;;;;;18.43;12.97;;;4.70;99.90;;;;;;5032775;28;20198;-70
2020/12/21 07:32:08;;;;;;;19.53;13.00;;;4.70;99.90;;;;;;5032115;28;20167;-71
2020/12/21 07:34:34;;;;;;;21.10;14.10;;;4.70;99.90;;;;;;5032116;28;20543;-71
2020/12/21 07:37:07;;;;;;;19.70;13.47;;;4.80;99.90;;;;;;5031995;28;20752;-71
2020/12/21 07:39:32;;;;;;;17.63;13.23;;;4.80;99.90;;;;;;5031769;28;20515;-71
2020/12/21 07:42:03;;;;;;;17.53;13.80;;;4.80;99.90;;;;;;5031977;28;20453;-71
2020/12/21 07:44:34;;;;;;;22.17;14.40;;;4.90;99.90;;;;;;5031895;28;20172;-71
2020/12/21 07:47:15;;;;;;;18.10;12.53;;;4.80;99.90;;;;;;5031742;28;20464;-71
2020/12/21 07:49:41;;;;;;;17.20;12.03;;;4.90;99.90;;;;;;5031518;28;20429;-71
2020/12/21 07:52:09;;;;;;;17.57;12.93;;;4.80;99.90;;;;;;5031736;28;20411;-71
2020/12/21 07:54:44;;;;;;;14.23;11.87;;;4.80;99.90;;;;;;5031988;28;20782;-72
2020/12/21 07:57:12;;;;;;;21.37;13.90;;;4.70;99.90;;;;;;5032209;28;20405;-70
2020/12/21 07:59:37;;;;;;;20.00;11.60;;;4.80;99.90;;;;;;5031579;28;20796;-72
2020/12/21 08:02:07;;;;;;;17.60;13.50;;;4.80;99.90;;;;;;5031986;28;20415;-72
2020/12/21 08:04:33;;;;;;;18.97;12.27;;;4.90;99.90;;;;;;5031820;28;20190;-71
2020/12/21 08:07:12;;;;;;;17.37;12.50;;;4.90;99.90;;;;;;5030533;28;20458;-71
2020/12/21 08:09:44;;;;;;;16.20;12.20;;;4.90;99.90;;;;;;5031373;28;20468;-71
2020/12/21 08:12:14;;;;;;;19.40;11.57;;;5.10;99.90;;;;;;5031691;28;20411;-70
2020/12/21 08:14:40;;;;;;;16.17;11.80;;;5.10;99.90;;;;;;5031472;28;20899;-69
2020/12/21 08:17:09;;;;;;;16.33;11.80;;;5.10;99.90;;;;;;5031757;28;20523;-68
2020/12/21 08:19:48;;;;;;;18.90;11.67;;;5.20;99.90;;;;;;5031292;28;20438;-70
2020/12/21 08:22:18;;;;;;;15.17;11.40;;;5.10;99.90;;;;;;5031488;28;20520;-69
2020/12/21 08:24:44;;;;;;;15.93;10.77;;;5.10;99.90;;;;;;5031543;28;20536;-71
2020/12/21 08:27:18;;;;;;;12.83;11.07;;;5.20;99.90;;;;;;5031262;28;20977;-71
2020/12/21 08:29:44;;;;;;;16.63;11.43;;;5.20;99.90;;;;;;5031242;28;20205;-70
2020/12/21 08:32:10;;;;;;;16.83;11.97;;;5.20;99.90;;;;;;5031187;28;20414;-71
2020/12/21 08:34:35;;;;;;;13.80;10.97;;;5.60;99.90;;;;;;5031233;28;20164;-71
2020/12/21 08:37:01;;;;;;;17.93;12.17;;;7.10;99.90;;;;;;5031252;28;20180;-71
2020/12/21 08:39:27;;;;;;;17.37;10.37;;;6.90;99.90;;;;;;5031536;28;20239;-71
2020/12/21 08:41:58;;;;;;;12.73;11.30;;;7.20;99.90;;;;;;5031143;28;20442;-71
2020/12/21 08:44:25;;;;;;;14.93;11.20;;;7.00;99.90;;;;;;5031300;28;20179;-74
2020/12/21 08:46:56;;;;;;;14.60;10.63;;;7.30;99.90;;;;;;5032434;28;20552;-71
2020/12/21 08:49:24;;;;;;;14.97;11.47;;;7.00;99.90;;;;;;5034955;28;20517;-71
2020/12/21 08:51:51;;;;;;;14.57;10.13;;;7.20;99.90;;;;;;5035020;28;20449;-70
2020/12/21 08:54:17;;;;;;;16.63;11.10;;;6.70;99.90;;;;;;5034768;28;20421;-70
2020/12/21 08:56:47;;;;;;;15.00;11.47;;;6.50;99.90;;;;;;5034482;28;20414;-71
2020/12/21 08:59:12;;;;;;;18.00;12.83;;;7.10;99.90;;;;;;5034789;28;20199;-70
2020/12/21 09:01:44;;;;;;;17.43;12.03;;;7.00;99.90;;;;;;5034545;28;20414;-70
2020/12/21 09:04:10;;;;;;;14.67;12.60;;;6.30;99.90;;;;;;5034788;28;20758;-70
2020/12/21 09:06:38;;;;;;;14.63;11.00;;;6.00;99.90;;;;;;5034341;28;20557;-70
2020/12/21 09:09:05;;;;;;;19.33;12.23;;;5.90;99.90;;;;;;5034561;28;20946;-70
2020/12/21 09:11:31;;;;;;;15.30;11.13;;;5.70;99.90;;;;;;5034367;28;20766;-70
2020/12/21 09:13:59;;;;;;;17.17;11.67;;;5.80;99.90;;;;;;5034734;28;20489;-71
2020/12/21 09:16:27;;;;;;;14.70;10.90;;;5.80;99.90;;;;;;5034795;28;20172;-71
2020/12/21 09:18:54;;;;;;;11.33;9.67;;;5.70;99.90;;;;;;5034282;28;20434;-71
2020/12/21 09:21:22;;;;;;;13.57;11.27;;;5.50;99.90;;;;;;5034514;28;20413;-71
2020/12/21 09:23:49;;;;;;;14.17;12.10;;;5.60;99.90;;;;;;5034160;28;20417;-71
2020/12/21 09:26:14;;;;;;;16.37;11.80;;;5.50;99.90;;;;;;5033930;28;20414;-72
2020/12/21 09:28:40;;;;;;;16.03;12.30;;;5.40;99.90;;;;;;5034146;28;20827;-71
2020/12/21 09:31:07;;;;;;;15.13;10.20;;;5.60;99.90;;;;;;5034222;28;20251;-71
2020/12/21 09:33:36;;;;;;;17.90;13.30;;;5.50;99.90;;;;;;5033752;28;20445;-71
2020/12/21 09:36:01;;;;;;;21.10;11.47;;;5.60;99.90;;;;;;5034224;28;20501;-71
2020/12/21 09:38:27;;;;;;;17.10;12.13;;;5.60;99.90;;;;;;5033855;28;20841;-71
2020/12/21 09:40:52;;;;;;;15.03;12.73;;;5.70;99.90;;;;;;5033798;28;20175;-71
2020/12/21 09:43:18;;;;;;;14.60;11.03;;;5.60;99.90;;;;;;5033704;28;20269;-71
2020/12/21 09:45:43;;;;;;;19.30;11.97;;;5.70;99.90;;;;;;5033896;28;20164;-71
2020/12/21 09:48:09;;;;;;;17.63;14.57;;;5.80;99.90;;;;;;5033772;28;20233;-71
2020/12/21 09:50:34;;;;;;;14.87;10.53;;;5.80;99.90;;;;;;5033795;28;20218;-71
2020/12/21 09:53:00;;;;;;;17.40;12.57;;;5.80;99.90;;;;;;5033426;28;20167;-71
2020/12/21 09:55:25;;;;;;;16.47;11.30;;;5.60;99.90;;;;;;5033562;28;20164;-70
2020/12/21 09:57:51;;;;;;;14.80;12.20;;;5.70;99.90;;;;;;5032999;28;20211;-71
2020/12/21 10:00:16;;;;;;;16.50;12.27;;;5.70;99.90;;;;;;5033524;28;20196;-70
2020/12/21 10:02:42;;;;;;;15.27;12.07;;;5.80;99.90;;;;;;5033522;28;20175;-70
2020/12/21 10:05:07;;;;;;;18.80;12.50;;;5.90;99.90;;;;;;5033320;28;20191;-70
2020/12/21 10:07:33;;;;;;;14.23;11.07;;;5.90;99.90;;;;;;5033342;28;20269;-70
2020/12/21 10:09:58;;;;;;;14.80;11.83;;;5.90;99.90;;;;;;5033338;28;20187;-71
2020/12/21 10:12:24;;;;;;;12.20;9.73;;;5.90;99.90;;;;;;5033450;28;20175;-71
2020/12/21 10:14:49;;;;;;;13.50;11.43;;;5.90;99.90;;;;;;5033101;28;20178;-71
2020/12/21 10:17:15;;;;;;;16.10;11.30;;;6.00;99.90;;;;;;5033177;28;20659;-71
2020/12/21 10:19:40;;;;;;;20.20;10.27;;;6.00;99.90;;;;;;5033349;28;20191;-70
2020/12/21 10:22:06;;;;;;;14.77;10.57;;;6.00;99.90;;;;;;5033138;28;20168;-69
2020/12/21 10:24:34;;;;;;;16.77;10.67;;;6.00;99.90;;;;;;5032931;28;20762;-72
2020/12/21 10:26:59;;;;;;;15.47;10.27;;;6.10;99.90;;;;;;5033020;28;20267;-71
2020/12/21 10:29:25;;;;;;;16.30;10.97;;;6.20;99.90;;;;;;5033294;28;20418;-71
2020/12/21 10:31:51;;;;;;;16.13;11.33;;;6.10;99.90;;;;;;5033203;28;20159;-70
2020/12/21 10:34:16;;;;;;;13.30;10.30;;;6.10;99.90;;;;;;5032871;28;20172;-70
2020/12/21 10:36:42;;;;;;;16.80;10.23;;;6.10;99.90;;;;;;5033028;28;20413;-69
2020/12/21 10:39:07;;;;;;;16.33;11.10;;;6.20;99.90;;;;;;5033137;28;20195;-69
2020/12/21 10:41:33;;;;;;;13.50;10.40;;;6.20;99.90;;;;;;5032901;28;20702;-71
2020/12/21 10:43:59;;;;;;;15.60;11.53;;;6.20;99.90;;;;;;5033062;28;20175;-71
2020/12/21 10:46:25;;;;;;;16.63;10.07;;;6.30;99.90;;;;;;5032462;28;20454;-71
2020/12/21 10:48:51;;;;;;;13.67;10.00;;;6.30;99.90;;;;;;5032969;28;20418;-71
2020/12/21 10:51:24;;;;;;;12.13;9.80;;;6.30;99.90;;;;;;5032816;28;20168;-71
2020/12/21 10:53:50;;;;;;;13.17;9.43;;;6.40;99.90;;;;;;5032953;28;20163;-71
2020/12/21 10:56:15;;;;;;;13.83;9.90;;;6.30;99.90;;;;;;5032284;28;20403;-70
2020/12/21 10:58:41;;;;;;;11.53;9.73;;;6.30;99.90;;;;;;5032699;28;20172;-71
2020/12/21 11:01:07;;;;;;;16.63;11.10;;;6.40;99.90;;;;;;5032568;28;20172;-71
2020/12/21 11:03:34;;;;;;;11.60;9.73;;;6.50;99.90;;;;;;5032486;28;20415;-71
2020/12/21 11:05:59;;;;;;;15.30;9.80;;;6.50;99.90;;;;;;5032031;28;20463;-70
2020/12/21 11:08:25;;;;;;;13.20;9.80;;;6.60;99.90;;;;;;5032123;28;20564;-71
2020/12/21 11:10:50;;;;;;;9.93;8.70;;;6.50;99.90;;;;;;5030877;28;20191;-70
2020/12/21 11:13:16;;;;;;;16.13;11.23;;;6.60;99.90;;;;;;5032358;28;20242;-71
2020/12/21 11:15:42;;;;;;;11.97;9.87;;;6.60;99.90;;;;;;5031918;28;20168;-71
2020/12/21 11:18:08;;;;;;;13.63;10.50;;;6.70;99.90;;;;;;5032230;28;20160;-71
2020/12/21 11:20:36;;;;;;;13.70;10.30;;;6.80;99.90;;;;;;5032047;28;20952;-71
2020/12/21 11:23:02;;;;;;;11.73;8.60;;;6.80;99.90;;;;;;5032249;28;20531;-71
2020/12/21 11:25:27;;;;;;;12.73;10.23;;;6.90;99.90;;;;;;5031911;28;20411;-71
2020/12/21 11:27:53;;;;;;;10.93;8.57;;;7.00;99.90;;;;;;5031804;28;20472;-71
2020/12/21 11:30:18;;;;;;;13.07;7.93;;;7.00;99.90;;;;;;5032186;28;20195;-71
2020/12/21 11:32:47;;;;;;;9.90;8.00;;;7.00;99.90;;;;;;5032328;28;20163;-71
2020/12/21 11:35:12;;;;;;;12.00;9.23;;;6.90;99.90;;;;;;5031880;28;20678;-71
2020/12/21 11:37:38;;;;;;;11.07;8.00;;;7.00;99.90;;;;;;5031862;28;20418;-71
2020/12/21 11:40:04;;;;;;;13.00;8.57;;;7.00;99.90;;;;;;5031937;28;20262;-69
2020/12/21 11:42:30;;;;;;;11.07;8.13;;;7.00;99.90;;;;;;5031943;28;20182;-71
2020/12/21 11:44:55;;;;;;;11.63;8.03;;;7.00;99.90;;;;;;5031786;28;20410;-70
2020/12/21 11:47:21;;;;;;;10.90;8.40;;;7.00;99.90;;;;;;5031334;28;20217;-70
2020/12/21 11:50:02;;;;;;;11.90;9.07;;;7.00;99.90;;;;;;5031636;28;20683;-72
2020/12/21 11:52:30;;;;;;;9.87;8.03;;;7.00;99.90;;;;;;5032053;28;20201;-71
2020/12/21 11:54:58;;;;;;;12.13;7.97;;;7.00;99.90;;;;;;5031782;28;20406;-71
2020/12/21 11:57:26;;;;;;;12.00;8.30;;;7.10;99.90;;;;;;5031478;28;20402;-71
2020/12/21 11:59:52;;;;;;;10.67;8.90;;;7.00;99.90;;;;;;5031751;28;20503;-71
2020/12/21 12:02:18;;;;;;;13.13;7.03;;;7.10;99.90;;;;;;5031222;28;20845;-71
2020/12/21 12:04:43;;;;;;;12.70;8.37;;;7.10;99.90;;;;;;5031692;28;20497;-71
2020/12/21 12:07:09;;;;;;;19.00;7.80;;;7.10;99.90;;;;;;5031537;28;20843;-71
2020/12/21 12:09:35;;;;;;;9.53;8.37;;;7.10;99.90;;;;;;5030063;28;20211;-71
2020/12/21 12:12:00;;;;;;;10.10;8.47;;;7.00;99.90;;;;;;5032186;28;20393;-71
2020/12/21 12:14:26;;;;;;;13.33;8.60;;;7.00;99.90;;;;;;5031719;28;20171;-71
2020/12/21 12:16:55;;;;;;;11.53;7.50;;;6.90;99.90;;;;;;5031504;28;20172;-71
2020/12/21 12:19:24;;;;;;;9.87;7.77;;;6.90;99.90;;;;;;5031355;28;20562;-71
2020/12/21 12:21:50;;;;;;;8.60;7.60;;;6.90;99.90;;;;;;5032887;28;20449;-70
2020/12/21 12:24:18;;;;;;;12.23;7.97;;;6.80;99.90;;;;;;5035616;28;20836;-70
2020/12/21 12:26:44;;;;;;;8.33;7.20;;;6.80;99.90;;;;;;5035498;28;20989;-70
2020/12/21 12:29:10;;;;;;;11.40;8.20;;;6.80;99.90;;;;;;5035160;28;20989;-70
2020/12/21 12:31:36;;;;;;;11.30;8.07;;;6.80;99.90;;;;;;5035115;28;20484;-70
2020/12/21 12:34:01;;;;;;;14.20;7.77;;;6.80;99.90;;;;;;5035795;28;20501;-71
2020/12/21 12:36:27;;;;;;;9.90;7.10;;;6.80;99.90;;;;;;5035295;28;20175;-71